createdAt,value
2022-09-04T00:00:13.206Z,13.30
2022-09-04T00:03:04.071Z,13.20
2022-09-04T00:05:38.037Z,13.20
2022-09-04T00:08:23.206Z,13.10
2022-09-04T00:10:57.392Z,13.10
2022-09-04T00:13:33.362Z,13.10
2022-09-04T00:16:09.827Z,13.00
2022-09-04T00:18:44.234Z,12.90
2022-09-04T00:21:20.436Z,12.90
2022-09-04T00:23:55.133Z,12.80
2022-09-04T00:26:38.624Z,12.90
2022-09-04T00:29:15.275Z,12.90
2022-09-04T00:31:50.571Z,12.90
2022-09-04T00:34:38.000Z,12.80
2022-09-04T00:37:10.065Z,12.70
2022-09-04T00:39:47.414Z,12.70
2022-09-04T00:42:33.750Z,12.70
2022-09-04T00:45:22.290Z,12.80
2022-09-04T00:48:21.870Z,12.90
2022-09-04T00:51:25.515Z,12.90
2022-09-04T00:54:30.155Z,12.90
2022-09-04T00:57:14.280Z,12.90
2022-09-04T01:00:06.250Z,12.90
2022-09-04T01:02:58.905Z,12.80
2022-09-04T01:05:40.711Z,12.90
2022-09-04T01:08:20.606Z,12.90
2022-09-04T01:11:02.110Z,12.90
2022-09-04T01:13:41.672Z,12.80
2022-09-04T01:16:17.067Z,12.80
2022-09-04T01:18:56.336Z,12.60
2022-09-04T01:21:59.865Z,12.50
2022-09-04T01:24:44.572Z,12.40
2022-09-04T01:27:21.702Z,12.20
2022-09-04T01:29:58.307Z,12.20
2022-09-04T01:32:37.083Z,12.20
2022-09-04T01:35:17.114Z,12.30
2022-09-04T01:37:56.993Z,12.20
2022-09-04T01:40:36.283Z,12.10
2022-09-04T01:43:11.454Z,12.00
2022-09-04T01:45:58.696Z,12.00
2022-09-04T01:48:34.897Z,11.80
2022-09-04T01:51:08.644Z,11.80
2022-09-04T01:53:41.575Z,11.80
2022-09-04T01:56:17.798Z,11.70
2022-09-04T01:58:54.435Z,11.70
2022-09-04T02:01:32.736Z,11.80
2022-09-04T02:04:08.366Z,11.80
2022-09-04T02:06:47.157Z,11.80
2022-09-04T02:09:36.177Z,11.80
2022-09-04T02:12:13.547Z,11.80
2022-09-04T02:14:52.437Z,11.80
2022-09-04T02:17:32.894Z,11.80
2022-09-04T02:20:13.585Z,11.80
2022-09-04T02:22:52.034Z,11.80
2022-09-04T02:25:29.314Z,11.80
2022-09-04T02:28:17.012Z,11.70
2022-09-04T02:30:54.524Z,11.60
2022-09-04T02:33:30.905Z,11.60
2022-09-04T02:36:07.084Z,11.60
2022-09-04T02:38:45.445Z,11.60
2022-09-04T02:41:21.967Z,11.50
2022-09-04T02:44:07.328Z,11.40
2022-09-04T02:46:48.982Z,11.40
2022-09-04T02:49:29.347Z,11.40
2022-09-04T02:52:08.290Z,11.40
2022-09-04T02:55:02.297Z,11.30
2022-09-04T02:57:41.855Z,11.50
2022-09-04T03:00:21.067Z,11.40
2022-09-04T03:03:02.054Z,11.30
2022-09-04T03:05:35.178Z,11.40
2022-09-04T03:08:08.596Z,11.40
2022-09-04T03:10:44.995Z,11.40
2022-09-04T03:13:25.070Z,11.40
2022-09-04T03:15:58.285Z,11.40
2022-09-04T03:18:34.515Z,11.40
2022-09-04T03:21:10.849Z,11.30
2022-09-04T03:23:47.636Z,11.20
2022-09-04T03:26:26.175Z,11.20
2022-09-04T03:29:04.331Z,11.30
2022-09-04T03:31:41.452Z,11.20
2022-09-04T03:34:30.396Z,11.20
2022-09-04T03:37:22.167Z,11.30
2022-09-04T03:40:04.587Z,11.30
2022-09-04T03:42:42.135Z,11.30
2022-09-04T03:45:22.197Z,11.20
2022-09-04T03:48:06.529Z,11.20
2022-09-04T03:50:45.829Z,11.00
2022-09-04T03:53:27.691Z,11.10
2022-09-04T03:56:23.758Z,11.00
2022-09-04T03:59:05.752Z,10.70
2022-09-04T04:01:48.819Z,10.40
2022-09-04T04:04:44.353Z,10.40
2022-09-04T04:07:30.521Z,10.60
2022-09-04T04:10:15.297Z,10.70
2022-09-04T04:12:59.650Z,10.80
2022-09-04T04:15:45.948Z,10.80
2022-09-04T04:18:45.030Z,10.90
2022-09-04T04:21:24.814Z,11.00
2022-09-04T04:24:14.538Z,11.10
2022-09-04T04:26:59.848Z,11.20
2022-09-04T04:29:56.896Z,11.30
2022-09-04T04:32:50.157Z,11.30
2022-09-04T04:35:28.969Z,11.30
2022-09-04T04:38:10.129Z,11.40
2022-09-04T04:41:00.326Z,11.50
2022-09-04T04:43:37.129Z,11.70
2022-09-04T04:46:14.268Z,11.80
2022-09-04T04:49:08.086Z,12.00
2022-09-04T04:51:51.857Z,12.20
2022-09-04T04:54:31.746Z,13.10
2022-09-04T04:57:13.274Z,14.40
2022-09-04T04:59:48.090Z,15.30
2022-09-04T05:02:23.310Z,15.70
2022-09-04T05:05:02.793Z,17.00
2022-09-04T05:07:37.442Z,18.80
2022-09-04T05:10:16.750Z,20.20
2022-09-04T05:13:13.392Z,21.60
2022-09-04T05:16:07.505Z,22.50
2022-09-04T05:18:40.998Z,23.40
2022-09-04T05:21:17.881Z,24.10
2022-09-04T05:23:54.638Z,25.00
2022-09-04T05:26:31.354Z,25.50
2022-09-04T05:29:07.691Z,26.40
2022-09-04T05:31:44.185Z,27.20
2022-09-04T05:34:23.746Z,27.40
2022-09-04T05:37:09.370Z,28.50
2022-09-04T05:39:50.948Z,28.70
2022-09-04T05:42:45.636Z,29.00
2022-09-04T05:45:25.551Z,29.80
2022-09-04T05:48:05.829Z,30.10
2022-09-04T05:50:52.355Z,30.50
2022-09-04T05:54:04.980Z,31.10
2022-09-04T05:56:55.830Z,31.30
2022-09-04T05:59:52.533Z,31.50
2022-09-04T06:03:12.498Z,32.70
2022-09-04T06:05:52.795Z,33.50
2022-09-04T06:08:35.552Z,33.70
2022-09-04T06:11:29.113Z,34.20
2022-09-04T06:14:25.694Z,33.80
2022-09-04T06:17:11.936Z,33.90
2022-09-04T06:19:54.810Z,34.30
2022-09-04T06:22:48.533Z,33.50
2022-09-04T06:25:58.442Z,32.80
2022-09-04T06:28:57.266Z,32.70
2022-09-04T06:31:48.852Z,33.70
2022-09-04T06:34:28.893Z,33.30
2022-09-04T06:37:07.681Z,34.40
2022-09-04T06:39:56.050Z,34.70
2022-09-04T06:42:36.876Z,34.60
2022-09-04T06:45:21.736Z,34.30
2022-09-04T06:48:07.761Z,33.60
2022-09-04T06:50:48.095Z,33.20
2022-09-04T06:53:27.212Z,32.30
2022-09-04T06:56:11.268Z,31.20
2022-09-04T06:59:15.483Z,30.80
2022-09-04T07:02:01.488Z,30.70
2022-09-04T07:04:47.824Z,29.90
2022-09-04T07:07:27.668Z,29.40
2022-09-04T07:10:01.654Z,29.00
2022-09-04T07:13:07.601Z,28.70
2022-09-04T07:16:05.069Z,27.70
2022-09-04T07:19:08.066Z,26.70
2022-09-04T07:21:49.848Z,26.40
2022-09-04T07:24:41.426Z,26.80
2022-09-04T07:27:17.307Z,27.50
2022-09-04T07:29:52.065Z,27.30
2022-09-04T07:32:30.561Z,27.20
2022-09-04T07:35:04.505Z,27.30
2022-09-04T07:37:41.965Z,27.70
2022-09-04T07:40:16.468Z,27.70
2022-09-04T07:42:52.138Z,27.30
2022-09-04T07:45:30.677Z,27.10
2022-09-04T07:48:14.677Z,26.50
2022-09-04T07:51:05.209Z,26.70
2022-09-04T07:53:55.458Z,26.10
2022-09-04T07:56:31.928Z,25.70
2022-09-04T07:59:31.248Z,25.30
2022-09-04T08:02:16.221Z,25.40
2022-09-04T08:05:09.386Z,25.70
2022-09-04T08:08:02.328Z,25.60
2022-09-04T08:10:34.387Z,26.50
2022-09-04T08:13:23.128Z,26.20
2022-09-04T08:15:58.796Z,25.90
2022-09-04T08:18:43.431Z,25.30
2022-09-04T08:21:28.829Z,24.90
2022-09-04T08:24:39.521Z,24.90
2022-09-04T08:27:20.386Z,25.30
2022-09-04T08:30:04.276Z,25.80
2022-09-04T08:33:09.356Z,26.70
2022-09-04T08:35:49.360Z,26.30
2022-09-04T08:38:35.936Z,26.30
2022-09-04T08:41:58.616Z,26.50
2022-09-04T08:45:09.309Z,27.10
2022-09-04T08:48:12.080Z,26.20
2022-09-04T08:51:13.229Z,26.10
2022-09-04T08:54:09.778Z,26.20
2022-09-04T08:56:47.560Z,26.10
2022-09-04T08:59:54.626Z,26.30
2022-09-04T09:03:05.992Z,26.60
2022-09-04T09:06:06.997Z,27.30
2022-09-04T09:09:17.840Z,26.30
2022-09-04T09:12:24.124Z,27.00
2022-09-04T09:15:37.684Z,26.90
2022-09-04T09:18:24.296Z,26.90
2022-09-04T09:20:58.696Z,26.80
2022-09-04T09:23:46.133Z,26.20
2022-09-04T09:26:28.582Z,25.50
2022-09-04T09:29:42.731Z,25.10
2022-09-04T09:32:44.481Z,24.60
2022-09-04T09:35:56.147Z,25.20
2022-09-04T09:39:10.058Z,25.20
2022-09-04T09:42:17.954Z,25.20
2022-09-04T09:45:37.440Z,24.80
2022-09-04T09:48:47.646Z,24.30
2022-09-04T09:51:46.968Z,24.30
2022-09-04T09:55:01.215Z,24.10
2022-09-04T09:58:21.647Z,24.00
2022-09-04T10:01:08.747Z,23.40
2022-09-04T10:04:34.125Z,22.90
2022-09-04T10:07:27.601Z,22.60
2022-09-04T10:10:21.602Z,22.80
2022-09-04T10:13:34.747Z,22.50
2022-09-04T10:16:29.542Z,22.40
2022-09-04T10:19:19.514Z,22.80
2022-09-04T10:22:39.819Z,23.10
2022-09-04T10:26:00.178Z,23.30
2022-09-04T10:28:59.887Z,23.10
2022-09-04T10:31:45.007Z,23.30
2022-09-04T10:34:30.462Z,23.10
2022-09-04T10:37:18.828Z,23.00
2022-09-04T10:40:20.668Z,22.90
2022-09-04T10:43:10.023Z,22.70
2022-09-04T10:45:46.692Z,22.50
2022-09-04T10:48:50.757Z,22.40
2022-09-04T10:52:05.846Z,22.20
2022-09-04T10:55:03.597Z,22.20
2022-09-04T10:57:49.846Z,22.30
2022-09-04T11:00:21.568Z,22.70
2022-09-04T11:03:22.134Z,22.80
2022-09-04T11:06:36.397Z,22.80
2022-09-04T11:09:44.176Z,22.70
2022-09-04T11:12:31.717Z,22.70
2022-09-04T11:15:30.842Z,22.50
2022-09-04T11:18:45.755Z,22.40
2022-09-04T11:22:14.872Z,22.60
2022-09-04T11:25:20.212Z,22.80
2022-09-04T11:28:13.430Z,23.10
2022-09-04T11:31:07.189Z,23.70
2022-09-04T11:34:12.215Z,23.90
2022-09-04T11:37:19.683Z,23.70
2022-09-04T11:40:42.788Z,24.40
2022-09-04T11:43:51.233Z,24.80
2022-09-04T11:46:35.131Z,24.90
2022-09-04T11:49:34.837Z,24.50
2022-09-04T11:52:16.988Z,24.00
2022-09-04T11:55:03.532Z,23.90
2022-09-04T11:57:42.710Z,23.80
2022-09-04T12:00:13.537Z,24.10
2022-09-04T12:03:21.275Z,24.40
2022-09-04T12:06:14.971Z,24.70
2022-09-04T12:09:25.850Z,25.30
2022-09-04T12:12:25.105Z,25.20
2022-09-04T12:15:24.379Z,25.10
2022-09-04T12:18:26.103Z,25.30
2022-09-04T12:21:25.627Z,25.70
2022-09-04T12:24:28.980Z,26.10
2022-09-04T12:27:29.844Z,26.50
2022-09-04T12:30:08.181Z,26.60
2022-09-04T12:32:58.502Z,25.70
2022-09-04T12:35:56.590Z,25.20
2022-09-04T12:38:49.303Z,24.80
2022-09-04T12:41:21.044Z,24.20
2022-09-04T12:44:04.019Z,24.00
2022-09-04T12:46:50.568Z,23.90
2022-09-04T12:49:53.806Z,23.90
2022-09-04T12:52:33.877Z,23.60
2022-09-04T12:55:12.775Z,23.50
2022-09-04T12:57:55.945Z,23.40
2022-09-04T13:00:46.031Z,23.40
2022-09-04T13:03:25.934Z,23.50
2022-09-04T13:06:10.844Z,23.90
2022-09-04T13:08:53.571Z,24.10
2022-09-04T13:11:42.463Z,24.10
2022-09-04T13:14:44.187Z,23.90
2022-09-04T13:17:19.946Z,23.70
2022-09-04T13:20:00.901Z,23.70
2022-09-04T13:22:38.064Z,23.60
2022-09-04T13:25:17.812Z,23.50
2022-09-04T13:28:03.584Z,23.50
2022-09-04T13:30:36.225Z,23.10
2022-09-04T13:33:25.885Z,23.00
2022-09-04T13:36:11.624Z,22.80
2022-09-04T13:39:06.666Z,22.70
2022-09-04T13:41:54.703Z,22.80
2022-09-04T13:45:06.813Z,22.60
2022-09-04T13:47:50.013Z,22.60
2022-09-04T13:50:26.050Z,22.60
2022-09-04T13:53:00.011Z,22.80
2022-09-04T13:55:35.041Z,22.90
2022-09-04T13:58:11.398Z,23.10
2022-09-04T14:00:47.402Z,23.40
2022-09-04T14:03:31.173Z,23.50
2022-09-04T14:06:02.168Z,23.70
2022-09-04T14:08:35.131Z,23.90
2022-09-04T14:11:51.209Z,23.60
2022-09-04T14:15:00.100Z,23.70
2022-09-04T14:17:37.811Z,23.40
2022-09-04T14:20:19.533Z,23.40
2022-09-04T14:23:03.372Z,23.40
2022-09-04T14:25:42.491Z,23.50
2022-09-04T14:28:22.460Z,23.50
2022-09-04T14:31:02.810Z,23.40
2022-09-04T14:33:53.914Z,23.30
2022-09-04T14:36:34.787Z,23.10
2022-09-04T14:39:19.412Z,22.80
2022-09-04T14:42:19.903Z,22.50
2022-09-04T14:45:14.872Z,22.30
2022-09-04T14:47:52.554Z,22.10
2022-09-04T14:50:29.915Z,22.10
2022-09-04T14:53:04.073Z,22.20
2022-09-04T14:55:36.555Z,22.20
2022-09-04T14:58:18.474Z,22.30
2022-09-04T15:01:02.314Z,22.10
2022-09-04T15:03:37.658Z,22.00
2022-09-04T15:06:21.358Z,22.00
2022-09-04T15:08:56.155Z,21.90
2022-09-04T15:11:32.546Z,22.00
2022-09-04T15:14:08.869Z,22.10
2022-09-04T15:16:50.083Z,22.10
2022-09-04T15:19:41.877Z,22.00
2022-09-04T15:22:17.541Z,21.90
2022-09-04T15:24:57.658Z,21.90
2022-09-04T15:27:32.673Z,21.90
2022-09-04T15:30:07.437Z,21.90
2022-09-04T15:32:42.525Z,21.90
2022-09-04T15:35:20.055Z,22.00
2022-09-04T15:37:54.576Z,21.90
2022-09-04T15:40:30.306Z,21.80
2022-09-04T15:43:12.407Z,21.80
2022-09-04T15:45:48.750Z,21.80
2022-09-04T15:48:32.395Z,21.80
2022-09-04T15:51:19.577Z,21.80
2022-09-04T15:54:10.127Z,21.70
2022-09-04T15:56:46.437Z,21.70
2022-09-04T15:59:21.838Z,21.60
2022-09-04T16:01:58.028Z,21.70
2022-09-04T16:04:34.674Z,21.60
2022-09-04T16:07:33.221Z,21.60
2022-09-04T16:10:16.380Z,21.60
2022-09-04T16:12:53.069Z,21.50
2022-09-04T16:15:27.385Z,21.60
2022-09-04T16:17:58.675Z,21.60
2022-09-04T16:20:35.624Z,21.50
2022-09-04T16:23:08.856Z,21.40
2022-09-04T16:25:42.208Z,21.40
2022-09-04T16:28:15.475Z,21.40
2022-09-04T16:30:48.314Z,21.30
2022-09-04T16:33:28.083Z,21.30
2022-09-04T16:36:03.682Z,21.20
2022-09-04T16:38:40.845Z,21.10
2022-09-04T16:41:16.728Z,21.00
2022-09-04T16:44:12.337Z,20.90
2022-09-04T16:46:56.634Z,20.80
2022-09-04T16:49:33.094Z,20.80
2022-09-04T16:52:08.989Z,20.80
2022-09-04T16:54:49.415Z,20.80
2022-09-04T16:57:26.912Z,20.70
2022-09-04T17:00:01.147Z,20.70
2022-09-04T17:02:43.243Z,20.50
2022-09-04T17:05:21.297Z,20.40
2022-09-04T17:08:03.652Z,20.40
2022-09-04T17:10:39.468Z,20.30
2022-09-04T17:13:17.428Z,20.20
2022-09-04T17:15:55.181Z,20.10
2022-09-04T17:18:28.209Z,20.00
2022-09-04T17:27:34.424Z,19.90
2022-09-04T17:28:57.198Z,19.80
2022-09-04T17:29:13.982Z,19.80
2022-09-04T17:30:36.384Z,19.70
2022-09-04T17:38:59.765Z,19.60
2022-09-04T17:40:44.119Z,19.50
2022-09-04T17:40:51.891Z,19.50
2022-09-04T17:42:09.472Z,19.50
2022-09-04T17:44:47.778Z,19.40
2022-09-04T17:47:29.113Z,19.30
2022-09-04T17:49:59.926Z,19.40
2022-09-04T17:52:32.387Z,19.30
2022-09-04T17:55:07.327Z,19.20
2022-09-04T17:57:53.017Z,19.20
2022-09-04T18:00:25.206Z,19.10
2022-09-04T18:03:02.870Z,19.10
2022-09-04T18:05:43.454Z,19.10
2022-09-04T18:08:30.187Z,19.10
2022-09-04T18:11:04.992Z,19.00
2022-09-04T18:13:40.187Z,18.90
2022-09-04T18:16:27.492Z,18.90
2022-09-04T18:19:14.516Z,18.80
2022-09-04T18:22:15.786Z,18.80
2022-09-04T18:24:44.148Z,18.70
2022-09-04T18:27:19.384Z,18.60
2022-09-04T18:33:50.484Z,18.60
2022-09-04T18:37:18.792Z,18.60
2022-09-04T18:37:23.604Z,18.50
2022-09-04T18:39:08.294Z,18.40
2022-09-04T18:48:14.193Z,18.40
2022-09-04T18:50:23.952Z,18.40
2022-09-04T18:50:51.994Z,18.30
2022-09-04T18:51:19.635Z,18.30
2022-09-04T18:53:53.200Z,18.30
2022-09-04T18:56:28.008Z,18.10
2022-09-04T18:59:07.250Z,18.10
2022-09-04T19:01:45.328Z,18.10
2022-09-04T19:04:37.152Z,18.10
2022-09-04T19:07:13.272Z,18.10
2022-09-04T19:10:19.168Z,18.00
2022-09-04T19:13:09.095Z,18.10
2022-09-04T19:15:52.445Z,18.10
2022-09-04T19:18:28.973Z,18.00
2022-09-04T19:21:15.206Z,18.00
2022-09-04T19:23:52.130Z,18.00
2022-09-04T19:26:27.771Z,18.00
2022-09-04T19:29:03.588Z,17.90
2022-09-04T19:31:39.727Z,17.90
2022-09-04T19:34:19.002Z,18.00
2022-09-04T19:36:55.987Z,17.90
2022-09-04T19:45:07.075Z,18.00
2022-09-04T19:46:01.273Z,17.90
2022-09-04T19:46:19.665Z,17.80
2022-09-04T19:48:45.740Z,17.80
2022-09-04T19:53:34.524Z,17.80
2022-09-04T19:54:37.107Z,17.80
2022-09-04T19:57:32.021Z,17.70
2022-09-04T20:00:33.669Z,17.60
2022-09-04T20:03:05.098Z,17.60
2022-09-04T20:05:37.272Z,17.60
2022-09-04T20:08:11.603Z,17.50
2022-09-04T20:10:49.092Z,17.50
2022-09-04T20:13:27.293Z,17.50
2022-09-04T20:16:02.261Z,17.40
2022-09-04T20:18:39.688Z,17.50
2022-09-04T20:21:19.773Z,17.40
2022-09-04T20:23:56.126Z,17.30
2022-09-04T20:26:30.433Z,17.30
2022-09-04T20:29:19.734Z,17.20
2022-09-04T20:31:55.821Z,17.10
2022-09-04T20:34:48.757Z,17.10
2022-09-04T20:37:28.284Z,17.10
2022-09-04T20:40:08.145Z,17.00
2022-09-04T20:42:43.198Z,16.90
2022-09-04T20:48:24.415Z,16.90
2022-09-04T20:52:53.680Z,16.80
2022-09-04T20:53:00.202Z,16.80
2022-09-04T20:54:29.154Z,16.70
2022-09-04T20:59:16.574Z,16.70
2022-09-04T21:03:13.598Z,16.60
2022-09-04T21:03:20.356Z,16.60
2022-09-04T21:06:08.041Z,16.60
2022-09-04T21:08:45.516Z,16.60
2022-09-04T21:11:39.584Z,16.50
2022-09-04T21:14:15.574Z,16.60
2022-09-04T21:17:29.846Z,16.50
2022-09-04T21:20:27.015Z,16.40
2022-09-04T21:23:32.095Z,16.40
2022-09-04T21:26:15.167Z,16.30
2022-09-04T21:29:17.369Z,16.20
2022-09-04T21:32:09.520Z,16.30
2022-09-04T21:34:55.687Z,16.20
2022-09-04T21:37:40.069Z,16.20
2022-09-04T21:40:51.582Z,16.10
2022-09-04T21:43:47.164Z,16.10
2022-09-04T21:46:33.173Z,16.00
2022-09-04T21:49:26.277Z,16.10
2022-09-04T21:52:17.919Z,16.00
2022-09-04T21:57:04.115Z,16.00
2022-09-04T22:02:35.466Z,15.90
2022-09-04T22:02:35.610Z,15.90
2022-09-04T22:04:18.600Z,15.90
2022-09-04T22:10:33.712Z,15.80
2022-09-04T22:13:39.073Z,15.80
2022-09-04T22:13:41.543Z,15.80
2022-09-04T22:16:20.562Z,15.80
2022-09-04T22:19:16.953Z,15.70
2022-09-04T22:22:03.247Z,15.80
2022-09-04T22:25:01.278Z,15.70
2022-09-04T22:28:07.933Z,15.70
2022-09-04T22:30:53.518Z,15.60
2022-09-04T22:34:15.040Z,15.60
2022-09-04T22:37:34.565Z,15.60
2022-09-04T22:40:35.736Z,15.60
2022-09-04T22:43:27.664Z,15.60
2022-09-04T22:46:30.772Z,15.60
2022-09-04T22:49:26.956Z,15.50
2022-09-04T22:52:26.717Z,15.40
2022-09-04T22:55:29.246Z,15.50
2022-09-04T22:58:17.533Z,15.40
2022-09-04T23:01:11.093Z,15.40
2022-09-04T23:03:55.495Z,15.30
2022-09-04T23:11:26.999Z,15.20
2022-09-04T23:13:43.307Z,15.20
2022-09-04T23:13:46.411Z,15.10
2022-09-04T23:16:03.361Z,15.10
2022-09-04T23:22:36.822Z,15.00
2022-09-04T23:26:46.606Z,15.00
2022-09-04T23:26:49.217Z,15.00
2022-09-04T23:28:27.860Z,15.00
2022-09-04T23:31:27.328Z,14.90
2022-09-04T23:34:42.599Z,14.80
2022-09-04T23:37:46.214Z,14.80
2022-09-04T23:40:36.128Z,14.80
2022-09-04T23:43:40.226Z,14.80
2022-09-04T23:46:27.731Z,14.70
2022-09-04T23:49:37.226Z,14.70
2022-09-04T23:52:15.127Z,14.60
2022-09-04T23:55:13.866Z,14.60
2022-09-04T23:57:51.296Z,14.50
